createdAt,value
2022-10-09T00:01:11.902Z,100664.97
2022-10-09T00:03:40.674Z,100684.38
2022-10-09T00:06:09.221Z,100687.00
2022-10-09T00:08:39.355Z,100681.03
2022-10-09T00:11:07.610Z,100673.13
2022-10-09T00:13:34.632Z,100677.28
2022-10-09T00:16:08.004Z,100656.59
2022-10-09T00:18:35.759Z,100678.53
2022-10-09T00:21:03.054Z,100647.41
2022-10-09T00:23:29.703Z,100676.97
2022-10-09T00:25:59.028Z,100671.81
2022-10-09T00:28:27.921Z,100652.97
2022-10-09T00:30:54.774Z,100601.94
2022-10-09T00:33:21.874Z,100682.91
2022-10-09T00:35:48.831Z,100673.56
2022-10-09T00:38:15.478Z,100665.13
2022-10-09T00:40:42.437Z,100657.34
2022-10-09T00:43:19.376Z,100675.53
2022-10-09T00:45:54.040Z,100662.19
2022-10-09T00:48:22.318Z,100667.75
2022-10-09T00:50:59.624Z,100658.88
2022-10-09T00:53:29.793Z,100670.56
2022-10-09T00:55:57.799Z,100634.50
2022-10-09T00:58:25.387Z,100650.44
2022-10-09T01:00:52.800Z,100653.38
2022-10-09T01:03:19.551Z,100649.91
2022-10-09T01:06:15.956Z,100651.66
2022-10-09T01:08:57.052Z,100639.78
2022-10-09T01:11:56.205Z,100648.38
2022-10-09T01:14:34.097Z,100650.03
2022-10-09T01:17:35.727Z,100651.00
2022-10-09T01:20:49.208Z,100652.16
2022-10-09T01:23:28.023Z,100643.53
2022-10-09T01:26:25.639Z,100638.28
2022-10-09T01:28:57.135Z,100633.28
2022-10-09T01:31:27.629Z,100638.28
2022-10-09T01:33:54.416Z,100632.59
2022-10-09T01:36:23.082Z,100634.81
2022-10-09T01:38:50.823Z,100602.78
2022-10-09T01:41:17.866Z,100634.94
2022-10-09T01:43:44.450Z,100634.81
2022-10-09T01:46:33.007Z,100625.38
2022-10-09T01:49:21.403Z,100629.41
2022-10-09T01:52:25.748Z,100617.06
2022-10-09T01:55:00.376Z,100609.03
2022-10-09T01:58:00.748Z,100611.53
2022-10-09T02:00:32.364Z,100612.50
2022-10-09T02:03:01.134Z,100583.78
2022-10-09T02:05:30.321Z,100591.13
2022-10-09T02:07:58.490Z,100596.28
2022-10-09T02:10:26.578Z,100603.47
2022-10-09T02:12:57.506Z,100600.94
2022-10-09T02:15:38.801Z,100601.34
2022-10-09T02:18:13.617Z,100586.78
2022-10-09T02:20:45.787Z,100604.44
2022-10-09T02:23:14.955Z,100598.72
2022-10-09T02:25:41.730Z,100602.47
2022-10-09T02:28:09.730Z,100573.03
2022-10-09T02:30:47.536Z,100564.53
2022-10-09T02:33:14.207Z,100594.56
2022-10-09T02:35:41.037Z,100601.34
2022-10-09T02:38:07.615Z,100599.97
2022-10-09T02:40:34.182Z,100599.56
2022-10-09T02:43:00.976Z,100602.06
2022-10-09T02:45:27.579Z,100572.09
2022-10-09T02:47:54.228Z,100593.91
2022-10-09T02:50:20.812Z,100569.22
2022-10-09T02:52:47.625Z,100572.84
2022-10-09T02:55:14.404Z,100557.72
2022-10-09T02:57:40.961Z,100589.84
2022-10-09T03:00:08.075Z,100567.03
2022-10-09T03:02:34.770Z,100592.63
2022-10-09T03:05:01.527Z,100595.25
2022-10-09T03:07:28.117Z,100592.03
2022-10-09T03:09:54.778Z,100594.97
2022-10-09T03:12:22.130Z,100594.50
2022-10-09T03:14:48.729Z,100575.53
2022-10-09T03:17:15.444Z,100585.09
2022-10-09T03:19:42.423Z,100600.25
2022-10-09T03:22:09.053Z,100583.59
2022-10-09T03:24:35.712Z,100588.19
2022-10-09T03:27:02.295Z,100578.78
2022-10-09T03:29:28.888Z,100584.84
2022-10-09T03:31:55.517Z,100582.94
2022-10-09T03:34:22.119Z,100590.97
2022-10-09T03:36:48.764Z,100590.00
2022-10-09T03:39:15.367Z,100588.84
2022-10-09T03:41:41.978Z,100593.25
2022-10-09T03:44:08.547Z,100574.19
2022-10-09T03:46:35.218Z,100588.16
2022-10-09T03:49:01.860Z,100578.56
2022-10-09T03:51:28.525Z,100606.25
2022-10-09T03:53:55.103Z,100567.69
2022-10-09T03:56:21.700Z,100604.88
2022-10-09T03:58:48.348Z,100604.16
2022-10-09T04:01:15.022Z,100606.00
2022-10-09T04:03:41.656Z,100592.19
2022-10-09T04:06:08.230Z,100545.47
2022-10-09T04:08:35.704Z,100606.38
2022-10-09T04:11:02.429Z,100590.34
2022-10-09T04:13:29.092Z,100604.75
2022-10-09T04:15:56.343Z,100603.09
2022-10-09T04:18:23.392Z,100593.59
2022-10-09T04:20:55.474Z,100599.91
2022-10-09T04:23:25.054Z,100569.50
2022-10-09T04:25:56.395Z,100584.59
2022-10-09T04:28:23.463Z,100587.47
2022-10-09T04:30:50.330Z,100554.84
2022-10-09T04:33:17.101Z,100595.13
2022-10-09T04:35:45.266Z,100584.16
2022-10-09T04:38:11.926Z,100593.16
2022-10-09T04:40:38.527Z,100563.72
2022-10-09T04:43:05.220Z,100574.78
2022-10-09T04:45:32.010Z,100591.97
2022-10-09T04:47:58.675Z,100589.44
2022-10-09T04:50:25.396Z,100597.56
2022-10-09T04:52:58.090Z,100577.50
2022-10-09T04:55:24.683Z,100594.25
2022-10-09T04:57:51.267Z,100584.22
2022-10-09T05:00:17.956Z,100585.31
2022-10-09T05:02:44.559Z,100595.03
2022-10-09T05:05:11.747Z,100571.41
2022-10-09T05:07:38.635Z,100564.44
2022-10-09T05:10:06.200Z,100580.19
2022-10-09T05:12:32.839Z,100589.34
2022-10-09T05:14:59.430Z,100570.72
2022-10-09T05:17:26.085Z,100597.47
2022-10-09T05:19:52.772Z,100595.50
2022-10-09T05:22:19.378Z,100596.00
2022-10-09T05:24:46.020Z,100582.69
2022-10-09T05:27:12.628Z,100587.81
2022-10-09T05:29:39.268Z,100586.00
2022-10-09T05:32:06.100Z,100557.97
2022-10-09T05:34:34.568Z,100593.81
2022-10-09T05:37:01.179Z,100590.50
2022-10-09T05:39:27.852Z,100582.25
2022-10-09T05:41:54.450Z,100588.34
2022-10-09T05:44:21.059Z,100594.66
2022-10-09T05:46:47.671Z,100554.34
2022-10-09T05:49:14.292Z,100585.25
2022-10-09T05:51:43.988Z,100587.91
2022-10-09T05:54:15.767Z,100567.03
2022-10-09T05:56:43.423Z,100579.81
2022-10-09T05:59:13.791Z,100586.25
2022-10-09T06:01:46.517Z,100580.06
2022-10-09T06:04:16.309Z,100590.75
2022-10-09T06:06:43.234Z,100593.38
2022-10-09T06:09:11.218Z,100589.91
2022-10-09T06:11:40.032Z,100576.72
2022-10-09T06:14:09.205Z,100593.06
2022-10-09T06:16:38.722Z,100586.34
2022-10-09T06:19:06.963Z,100604.72
2022-10-09T06:21:34.519Z,100596.16
2022-10-09T06:24:02.753Z,100593.25
2022-10-09T06:26:30.438Z,100589.66
2022-10-09T06:28:58.884Z,100594.13
2022-10-09T06:31:27.846Z,100583.38
2022-10-09T06:33:55.127Z,100583.63
2022-10-09T06:36:27.166Z,100575.63
2022-10-09T06:38:54.161Z,100590.22
2022-10-09T06:41:23.583Z,100577.75
2022-10-09T06:43:52.650Z,100591.63
2022-10-09T06:46:20.935Z,100594.00
2022-10-09T06:48:47.626Z,100601.72
2022-10-09T06:51:16.763Z,100563.06
2022-10-09T06:53:46.359Z,100568.88
2022-10-09T06:56:13.314Z,100584.44
2022-10-09T06:58:40.631Z,100586.38
2022-10-09T07:01:07.303Z,100593.69
2022-10-09T07:03:35.214Z,100591.06
2022-10-09T07:06:13.052Z,100568.78
2022-10-09T07:08:41.610Z,100596.41
2022-10-09T07:11:16.387Z,100583.09
2022-10-09T07:13:44.114Z,100589.69
2022-10-09T07:16:11.508Z,100576.47
2022-10-09T07:18:39.435Z,100586.63
2022-10-09T07:21:08.659Z,100562.72
2022-10-09T07:23:36.141Z,100579.50
2022-10-09T07:26:12.362Z,100576.03
2022-10-09T07:28:40.230Z,100543.00
2022-10-09T07:31:07.172Z,100572.91
2022-10-09T07:33:34.096Z,100577.09
2022-10-09T07:36:02.411Z,100499.72
2022-10-09T07:38:29.765Z,100543.13
2022-10-09T07:41:04.078Z,100565.00
2022-10-09T07:43:30.832Z,100563.84
2022-10-09T07:46:01.907Z,100559.97
2022-10-09T07:48:28.775Z,100547.09
2022-10-09T07:50:56.884Z,100548.88
2022-10-09T07:53:23.856Z,100559.34
2022-10-09T07:55:50.555Z,100540.63
2022-10-09T07:58:17.899Z,100546.47
2022-10-09T08:00:44.494Z,100541.19
2022-10-09T08:03:11.239Z,100559.78
2022-10-09T08:05:37.844Z,100521.56
2022-10-09T08:08:04.476Z,100551.66
2022-10-09T08:10:31.996Z,100509.84
2022-10-09T08:12:58.707Z,100543.47
2022-10-09T08:15:26.209Z,100536.25
2022-10-09T08:17:54.059Z,100544.19
2022-10-09T08:20:20.738Z,100528.03
2022-10-09T08:22:47.664Z,100541.44
2022-10-09T08:25:14.704Z,100536.94
2022-10-09T08:27:41.268Z,100518.38
2022-10-09T08:30:08.492Z,100546.81
2022-10-09T08:32:35.139Z,100510.59
2022-10-09T08:35:01.848Z,100553.97
2022-10-09T08:37:28.483Z,100549.16
2022-10-09T08:39:55.242Z,100545.59
2022-10-09T08:42:43.463Z,100553.03
2022-10-09T08:45:16.860Z,100550.00
2022-10-09T08:47:50.479Z,100554.03
2022-10-09T08:50:24.411Z,100565.66
2022-10-09T08:53:26.525Z,100555.28
2022-10-09T08:55:56.552Z,100560.53
2022-10-09T08:58:29.007Z,100555.19
2022-10-09T09:01:03.861Z,100545.09
2022-10-09T09:03:39.428Z,100547.22
2022-10-09T09:06:12.026Z,100544.91
2022-10-09T09:08:44.098Z,100537.88
2022-10-09T09:11:38.028Z,100546.59
2022-10-09T09:14:29.627Z,100533.47
2022-10-09T09:17:10.396Z,100533.47
2022-10-09T09:19:57.115Z,100536.34
2022-10-09T09:22:25.085Z,100527.47
2022-10-09T09:24:54.150Z,100534.03
2022-10-09T09:27:27.211Z,100520.25
2022-10-09T09:29:53.832Z,100518.78
2022-10-09T09:32:26.219Z,100514.72
2022-10-09T09:35:02.605Z,100515.13
2022-10-09T09:37:29.285Z,100504.06
2022-10-09T09:42:43.592Z,100506.22
2022-10-09T09:45:19.657Z,100515.78
2022-10-09T09:47:51.797Z,100511.69
2022-10-09T09:51:10.309Z,100500.59
2022-10-09T09:53:32.265Z,100496.81
2022-10-09T09:55:59.254Z,100496.13
2022-10-09T09:58:50.891Z,100485.78
2022-10-09T10:01:29.067Z,100484.75
2022-10-09T10:03:58.943Z,100463.78
2022-10-09T10:06:29.042Z,100474.28
2022-10-09T10:09:05.280Z,100468.22
2022-10-09T10:11:34.939Z,100463.78
2022-10-09T10:14:14.645Z,100466.56
2022-10-09T10:16:42.369Z,100446.03
2022-10-09T10:19:49.635Z,100452.59
2022-10-09T10:22:28.077Z,100451.53
2022-10-09T10:24:57.946Z,100431.66
2022-10-09T10:27:35.394Z,100432.72
2022-10-09T10:30:05.483Z,100434.03
2022-10-09T10:32:47.200Z,100438.25
2022-10-09T10:35:20.973Z,100419.50
2022-10-09T10:37:53.235Z,100376.25
2022-10-09T10:40:32.125Z,100419.38
2022-10-09T10:43:09.884Z,100414.97
2022-10-09T10:46:11.296Z,100406.47
2022-10-09T10:48:42.207Z,100404.56
2022-10-09T10:51:23.918Z,100407.47
2022-10-09T10:54:14.861Z,100403.53
2022-10-09T10:57:03.225Z,100368.34
2022-10-09T11:00:12.072Z,100394.22
2022-10-09T11:03:03.225Z,100390.28
2022-10-09T11:05:57.211Z,100386.97
2022-10-09T11:08:36.120Z,100380.75
2022-10-09T11:11:13.922Z,100378.28
2022-10-09T11:14:19.951Z,100373.56
2022-10-09T11:17:16.708Z,100375.31
2022-10-09T11:20:15.747Z,100388.75
2022-10-09T11:23:03.893Z,100361.69
2022-10-09T11:25:41.473Z,100348.22
2022-10-09T11:28:19.424Z,100334.44
2022-10-09T11:30:59.456Z,100355.50
2022-10-09T11:33:44.304Z,100342.13
2022-10-09T11:36:24.467Z,100340.41
2022-10-09T11:39:06.442Z,100335.53
2022-10-09T11:41:35.368Z,100317.97
2022-10-09T11:44:32.701Z,100338.38
2022-10-09T11:47:14.335Z,100318.78
2022-10-09T11:50:02.850Z,100325.41
2022-10-09T11:52:49.510Z,100314.97
2022-10-09T11:55:21.328Z,100313.50
2022-10-09T11:57:48.853Z,100292.00
2022-10-09T12:00:16.930Z,100306.84
2022-10-09T12:02:44.399Z,100314.53
2022-10-09T12:05:36.334Z,100301.56
2022-10-09T12:08:12.982Z,100300.97
2022-10-09T12:10:53.903Z,100285.50
2022-10-09T12:13:45.074Z,100288.13
2022-10-09T12:16:29.243Z,100277.25
2022-10-09T12:18:58.086Z,100269.03
2022-10-09T12:21:50.809Z,100263.41
2022-10-09T12:24:25.172Z,100261.78
2022-10-09T12:26:55.066Z,100263.72
2022-10-09T12:29:28.767Z,100245.66
2022-10-09T12:32:01.624Z,100251.91
2022-10-09T12:34:33.528Z,100238.66
2022-10-09T12:37:09.948Z,100242.72
2022-10-09T12:39:37.469Z,100191.19
2022-10-09T12:42:05.088Z,100194.34
2022-10-09T12:44:38.602Z,100198.59
2022-10-09T12:47:08.648Z,100219.03
2022-10-09T12:49:36.131Z,100204.06
2022-10-09T12:52:03.062Z,100207.56
2022-10-09T12:54:31.363Z,100186.63
2022-10-09T12:56:59.502Z,100198.88
2022-10-09T12:59:27.860Z,100201.25
2022-10-09T13:01:58.175Z,100101.88
2022-10-09T13:04:32.324Z,100194.66
2022-10-09T13:07:16.656Z,100189.06
2022-10-09T13:09:43.399Z,100164.19
2022-10-09T13:12:20.145Z,100166.66
2022-10-09T13:14:57.398Z,100184.63
2022-10-09T13:17:41.624Z,100162.25
2022-10-09T13:20:17.340Z,100161.50
2022-10-09T13:22:58.279Z,100156.75
2022-10-09T13:25:29.402Z,100153.66
2022-10-09T13:27:56.876Z,100155.31
2022-10-09T13:30:23.952Z,100145.63
2022-10-09T13:32:50.758Z,100129.09
2022-10-09T13:35:17.521Z,100132.19
2022-10-09T13:37:44.293Z,100141.53
2022-10-09T13:40:15.700Z,100129.44
2022-10-09T13:42:52.209Z,100144.50
2022-10-09T13:45:18.898Z,100137.66
2022-10-09T13:47:45.639Z,100117.19
2022-10-09T13:50:15.991Z,100116.16
2022-10-09T13:52:42.651Z,100127.53
2022-10-09T13:55:10.112Z,100126.38
2022-10-09T13:57:36.771Z,100109.28
2022-10-09T14:00:05.072Z,100122.63
2022-10-09T14:02:39.080Z,100117.44
2022-10-09T14:05:06.144Z,100119.09
2022-10-09T14:07:32.730Z,100110.13
2022-10-09T14:09:59.414Z,100099.50
2022-10-09T14:12:26.015Z,100113.34
2022-10-09T14:14:53.837Z,100079.44
2022-10-09T14:17:20.517Z,100099.72
2022-10-09T14:19:48.049Z,100094.47
2022-10-09T14:22:15.537Z,100093.75
2022-10-09T14:24:42.781Z,100084.59
2022-10-09T14:27:09.608Z,100088.50
2022-10-09T14:29:38.038Z,100024.19
2022-10-09T14:32:05.570Z,100090.59
2022-10-09T14:34:32.289Z,100062.59
2022-10-09T14:36:58.941Z,100076.38
2022-10-09T14:39:25.637Z,100054.78
2022-10-09T14:41:52.328Z,100067.53
2022-10-09T14:44:19.015Z,100057.63
2022-10-09T14:46:45.640Z,100050.44
2022-10-09T14:49:12.398Z,100039.00
2022-10-09T14:51:40.721Z,100041.97
2022-10-09T14:54:08.475Z,100053.28
2022-10-09T14:56:36.114Z,100051.56
2022-10-09T14:59:05.827Z,100024.34
2022-10-09T15:01:33.813Z,100036.59
2022-10-09T15:04:00.928Z,100050.78
2022-10-09T15:06:28.128Z,100032.53
2022-10-09T15:09:03.050Z,100046.06
2022-10-09T15:11:33.982Z,100033.91
2022-10-09T15:14:00.656Z,100035.69
2022-10-09T15:16:27.342Z,99993.97
2022-10-09T15:18:55.168Z,100020.38
2022-10-09T15:21:27.430Z,99970.47
2022-10-09T15:23:56.446Z,100030.63
2022-10-09T15:26:25.426Z,100030.88
2022-10-09T15:28:52.191Z,100016.28
2022-10-09T15:31:24.987Z,100025.75
2022-10-09T15:33:53.105Z,100030.41
2022-10-09T15:36:20.982Z,100005.53
2022-10-09T15:38:47.893Z,100021.41
2022-10-09T15:41:25.294Z,100013.00
2022-10-09T15:43:53.979Z,99994.41
2022-10-09T15:46:21.142Z,100022.69
2022-10-09T15:48:48.515Z,100011.44
2022-10-09T15:51:15.741Z,99992.81
2022-10-09T15:53:44.920Z,100008.50
2022-10-09T15:56:20.758Z,99995.63
2022-10-09T15:58:47.496Z,99999.00
2022-10-09T16:01:16.032Z,100005.75
2022-10-09T16:03:43.583Z,99976.50
2022-10-09T16:06:13.031Z,99986.81
2022-10-09T16:08:41.096Z,99971.13
2022-10-09T16:11:11.260Z,99991.31
2022-10-09T16:13:42.338Z,99987.09
2022-10-09T16:16:14.251Z,99979.53
2022-10-09T16:18:40.962Z,99984.81
2022-10-09T16:21:10.191Z,99988.81
2022-10-09T16:23:37.161Z,99986.03
2022-10-09T16:26:04.408Z,99982.25
2022-10-09T16:28:32.522Z,99967.41
2022-10-09T16:30:59.417Z,99935.78
2022-10-09T16:33:26.421Z,99971.16
2022-10-09T16:35:53.189Z,99914.25
2022-10-09T16:38:20.472Z,99971.50
2022-10-09T16:41:01.365Z,99971.22
2022-10-09T16:43:32.231Z,99951.00
2022-10-09T16:46:11.932Z,99971.09
2022-10-09T16:48:38.639Z,99975.25
2022-10-09T16:51:10.830Z,99969.34
2022-10-09T16:53:37.681Z,99985.84
2022-10-09T16:56:11.007Z,99965.50
2022-10-09T16:58:37.893Z,99974.34
2022-10-09T17:01:09.436Z,99978.91
2022-10-09T17:03:37.014Z,99946.34
2022-10-09T17:06:08.237Z,99969.72
2022-10-09T17:08:35.136Z,99985.31
2022-10-09T17:11:01.903Z,99961.09
2022-10-09T17:13:28.666Z,99979.41
2022-10-09T17:15:55.315Z,99975.09
2022-10-09T17:18:22.074Z,99956.59
2022-10-09T17:20:48.842Z,99959.28
2022-10-09T17:23:15.636Z,99963.38
2022-10-09T17:25:43.942Z,99983.50
2022-10-09T17:28:10.874Z,99984.34
2022-10-09T17:30:39.510Z,99951.66
2022-10-09T17:33:06.657Z,99982.50
2022-10-09T17:35:33.652Z,99990.25
2022-10-09T17:38:00.471Z,99985.31
2022-10-09T17:40:27.280Z,99983.84
2022-10-09T17:42:53.947Z,99984.28
2022-10-09T17:45:20.587Z,99977.50
2022-10-09T17:47:47.283Z,99979.78
2022-10-09T17:50:14.044Z,99994.19
2022-10-09T17:52:40.798Z,99996.84
2022-10-09T17:55:08.178Z,99996.22
2022-10-09T17:57:35.458Z,99969.47
2022-10-09T18:00:02.242Z,99993.50
2022-10-09T18:02:31.596Z,99976.66
2022-10-09T18:04:58.375Z,99964.16
2022-10-09T18:07:25.278Z,99972.34
2022-10-09T18:09:52.243Z,99984.66
2022-10-09T18:12:19.173Z,99988.53
2022-10-09T18:14:46.269Z,99981.56
2022-10-09T18:17:13.412Z,99984.22
2022-10-09T18:19:40.161Z,99993.03
2022-10-09T18:22:06.993Z,99982.75
2022-10-09T18:24:34.070Z,99968.16
2022-10-09T18:27:00.975Z,99980.47
2022-10-09T18:29:27.919Z,99974.13
2022-10-09T18:31:55.900Z,99972.47
2022-10-09T18:34:23.576Z,99976.75
2022-10-09T18:36:52.186Z,99946.19
2022-10-09T18:39:21.536Z,99971.19
2022-10-09T18:41:48.552Z,99969.72
2022-10-09T18:44:19.549Z,99971.78
2022-10-09T18:46:59.978Z,99954.31
2022-10-09T18:49:31.455Z,99971.94
2022-10-09T18:52:00.459Z,99969.06
2022-10-09T18:54:28.963Z,99967.56
2022-10-09T18:56:56.263Z,99977.44
2022-10-09T18:59:23.168Z,99950.50
2022-10-09T19:01:49.906Z,99950.03
2022-10-09T19:04:17.097Z,99950.03
2022-10-09T19:06:44.175Z,99934.88
2022-10-09T19:09:11.212Z,99944.31
2022-10-09T19:11:38.267Z,99954.72
2022-10-09T19:14:05.348Z,99943.84
2022-10-09T19:16:33.723Z,99952.66
2022-10-09T19:19:00.604Z,99939.75
2022-10-09T19:21:28.081Z,99925.91
2022-10-09T19:23:55.240Z,99947.06
2022-10-09T19:26:23.337Z,99960.19
2022-10-09T19:28:50.543Z,99955.88
2022-10-09T19:31:17.588Z,99941.06
2022-10-09T19:33:44.567Z,99933.91
2022-10-09T19:36:13.667Z,99951.94
2022-10-09T19:38:46.581Z,99946.59
2022-10-09T19:41:15.658Z,99952.53
2022-10-09T19:43:42.966Z,99938.38
2022-10-09T19:46:14.307Z,99932.22
2022-10-09T19:48:41.846Z,99951.69
2022-10-09T19:51:15.789Z,99945.78
2022-10-09T19:53:43.633Z,99920.69
2022-10-09T19:56:16.427Z,99936.47
2022-10-09T20:02:49.727Z,99949.53
2022-10-09T20:05:16.688Z,99947.91
2022-10-09T20:07:43.913Z,99927.72
2022-10-09T20:10:10.792Z,99937.59
2022-10-09T20:12:37.535Z,99948.66
2022-10-09T20:15:04.710Z,99944.75
2022-10-09T20:17:31.581Z,99941.66
2022-10-09T20:19:58.289Z,99918.41
2022-10-09T20:22:25.039Z,99954.91
2022-10-09T20:24:53.226Z,99948.78
2022-10-09T20:27:19.908Z,99927.81
2022-10-09T20:29:47.838Z,99933.13
2022-10-09T20:32:14.855Z,99937.44
2022-10-09T20:34:41.880Z,99940.09
2022-10-09T20:37:08.657Z,99939.50
2022-10-09T20:39:35.499Z,99939.69
2022-10-09T20:42:02.369Z,99945.81
2022-10-09T20:44:29.240Z,99874.34
2022-10-09T20:46:56.882Z,99930.81
2022-10-09T20:49:23.722Z,99923.63
2022-10-09T20:51:51.238Z,99933.41
2022-10-09T20:54:19.901Z,99944.47
2022-10-09T20:56:47.606Z,99909.94
2022-10-09T20:59:14.778Z,99947.06
2022-10-09T21:01:41.640Z,99927.34
2022-10-09T21:04:10.353Z,99928.03
2022-10-09T21:06:37.183Z,99935.38
2022-10-09T21:09:04.254Z,99934.53
2022-10-09T21:11:32.494Z,99930.03
2022-10-09T21:13:59.160Z,99921.06
2022-10-09T21:16:25.879Z,99923.22
2022-10-09T21:18:57.699Z,99922.47
2022-10-09T21:21:24.714Z,99929.03
2022-10-09T21:23:53.272Z,99923.13
2022-10-09T21:26:21.906Z,99918.44
2022-10-09T21:28:49.763Z,99895.50
2022-10-09T21:31:24.479Z,99924.88
2022-10-09T21:33:51.167Z,99925.91
2022-10-09T21:36:29.785Z,99925.72
2022-10-09T21:38:56.535Z,99906.81
2022-10-09T21:42:38.866Z,99918.25
2022-10-09T21:45:05.976Z,99926.38
2022-10-09T21:47:33.123Z,99921.00
2022-10-09T21:49:59.989Z,99915.44
2022-10-09T21:52:26.790Z,99891.97
2022-10-09T21:54:53.422Z,99914.56
2022-10-09T21:57:20.083Z,99873.09
2022-10-09T21:59:47.379Z,99872.41
2022-10-09T22:02:14.089Z,99901.03
2022-10-09T22:04:40.887Z,99911.22
2022-10-09T22:07:07.661Z,99912.16
2022-10-09T22:09:34.389Z,99901.22
2022-10-09T22:12:01.327Z,99879.28
2022-10-09T22:14:28.047Z,99904.81
2022-10-09T22:16:54.715Z,99897.03
2022-10-09T22:19:21.506Z,99900.06
2022-10-09T22:21:48.985Z,99894.84
2022-10-09T22:24:15.690Z,99898.69
2022-10-09T22:26:42.335Z,99867.84
2022-10-09T22:29:09.034Z,99898.84
2022-10-09T22:31:35.726Z,99877.19
2022-10-09T22:34:02.788Z,99901.50
2022-10-09T22:36:32.049Z,99893.50
2022-10-09T22:39:01.758Z,99886.44
2022-10-09T22:41:29.888Z,99893.97
2022-10-09T22:44:00.455Z,99894.34
2022-10-09T22:46:29.988Z,99858.50
2022-10-09T22:48:57.523Z,99897.81
2022-10-09T22:51:25.849Z,99894.59
2022-10-09T22:53:52.665Z,99891.03
2022-10-09T22:56:22.089Z,99902.94
2022-10-09T22:58:49.912Z,99889.94
2022-10-09T23:01:25.118Z,99898.19
2022-10-09T23:03:52.051Z,99898.72
2022-10-09T23:06:20.104Z,99900.66
2022-10-09T23:08:48.431Z,99902.31
2022-10-09T23:11:16.475Z,99876.34
2022-10-09T23:13:43.647Z,99891.97
2022-10-09T23:16:12.634Z,99892.63
2022-10-09T23:18:40.063Z,99893.72
2022-10-09T23:21:10.839Z,99901.13
2022-10-09T23:23:37.798Z,99904.31
2022-10-09T23:26:09.256Z,99903.59
2022-10-09T23:28:36.277Z,99863.63
2022-10-09T23:31:05.607Z,99881.09
2022-10-09T23:33:32.493Z,99865.06
2022-10-09T23:36:01.362Z,99866.88
2022-10-09T23:38:28.566Z,99892.09
2022-10-09T23:41:01.269Z,99885.25
2022-10-09T23:43:29.815Z,99885.88
2022-10-09T23:45:58.904Z,99869.34
2022-10-09T23:48:26.295Z,99871.56
2022-10-09T23:50:54.500Z,99819.38
2022-10-09T23:53:22.349Z,99882.50
2022-10-09T23:55:49.154Z,99868.66
2022-10-09T23:58:20.564Z,99866.22
